sensor_id;sensor_type;location;lat;lon;timestamp;P1;durP1;ratioP1;P2;durP2;ratioP2
14698;SDS011;7439;50.804;4.602;2022-12-16T00:02:09;79.07;;;48.23;;
14698;SDS011;7439;50.804;4.602;2022-12-16T00:04:36;81.30;;;48.40;;
14698;SDS011;7439;50.804;4.602;2022-12-16T00:07:03;73.77;;;47.13;;
14698;SDS011;7439;50.804;4.602;2022-12-16T00:09:31;70.73;;;47.70;;
14698;SDS011;7439;50.804;4.602;2022-12-16T00:11:58;71.50;;;47.13;;
14698;SDS011;7439;50.804;4.602;2022-12-16T00:14:27;75.77;;;50.63;;
14698;SDS011;7439;50.804;4.602;2022-12-16T00:16:54;83.17;;;47.83;;
14698;SDS011;7439;50.804;4.602;2022-12-16T00:19:22;87.43;;;49.30;;
14698;SDS011;7439;50.804;4.602;2022-12-16T00:21:49;79.17;;;48.70;;
14698;SDS011;7439;50.804;4.602;2022-12-16T00:24:16;70.70;;;46.43;;
14698;SDS011;7439;50.804;4.602;2022-12-16T00:26:44;74.83;;;47.97;;
14698;SDS011;7439;50.804;4.602;2022-12-16T00:29:11;80.83;;;50.70;;
14698;SDS011;7439;50.804;4.602;2022-12-16T00:31:40;68.63;;;46.67;;
14698;SDS011;7439;50.804;4.602;2022-12-16T00:34:12;70.10;;;44.67;;
14698;SDS011;7439;50.804;4.602;2022-12-16T00:36:39;74.13;;;48.67;;
14698;SDS011;7439;50.804;4.602;2022-12-16T00:39:07;75.97;;;48.57;;
14698;SDS011;7439;50.804;4.602;2022-12-16T00:41:35;71.07;;;47.00;;
14698;SDS011;7439;50.804;4.602;2022-12-16T00:44:03;75.23;;;47.07;;
14698;SDS011;7439;50.804;4.602;2022-12-16T00:46:30;80.30;;;51.60;;
14698;SDS011;7439;50.804;4.602;2022-12-16T00:48:59;86.47;;;49.83;;
14698;SDS011;7439;50.804;4.602;2022-12-16T00:51:26;78.70;;;49.73;;
14698;SDS011;7439;50.804;4.602;2022-12-16T00:53:54;71.97;;;49.13;;
14698;SDS011;7439;50.804;4.602;2022-12-16T00:56:21;73.90;;;49.50;;
14698;SDS011;7439;50.804;4.602;2022-12-16T00:58:49;73.40;;;47.60;;
14698;SDS011;7439;50.804;4.602;2022-12-16T01:01:17;78.87;;;48.50;;
14698;SDS011;7439;50.804;4.602;2022-12-16T01:03:44;75.20;;;50.83;;
14698;SDS011;7439;50.804;4.602;2022-12-16T01:06:14;76.67;;;50.03;;
14698;SDS011;7439;50.804;4.602;2022-12-16T01:08:42;69.07;;;47.83;;
14698;SDS011;7439;50.804;4.602;2022-12-16T01:11:12;73.47;;;51.67;;
14698;SDS011;7439;50.804;4.602;2022-12-16T01:13:40;80.57;;;50.50;;
14698;SDS011;7439;50.804;4.602;2022-12-16T01:16:08;70.67;;;49.90;;
14698;SDS011;7439;50.804;4.602;2022-12-16T01:18:35;71.00;;;48.27;;
14698;SDS011;7439;50.804;4.602;2022-12-16T01:21:03;79.23;;;47.83;;
14698;SDS011;7439;50.804;4.602;2022-12-16T01:23:32;67.93;;;44.73;;
14698;SDS011;7439;50.804;4.602;2022-12-16T01:26:00;81.70;;;49.13;;
14698;SDS011;7439;50.804;4.602;2022-12-16T01:28:28;75.53;;;49.63;;
14698;SDS011;7439;50.804;4.602;2022-12-16T01:30:55;71.03;;;48.07;;
14698;SDS011;7439;50.804;4.602;2022-12-16T01:33:26;71.60;;;45.63;;
14698;SDS011;7439;50.804;4.602;2022-12-16T01:36:00;73.70;;;48.63;;
14698;SDS011;7439;50.804;4.602;2022-12-16T01:38:28;68.77;;;48.93;;
14698;SDS011;7439;50.804;4.602;2022-12-16T01:40:57;73.47;;;48.77;;
14698;SDS011;7439;50.804;4.602;2022-12-16T01:43:25;72.57;;;49.60;;
14698;SDS011;7439;50.804;4.602;2022-12-16T01:45:53;75.97;;;49.80;;
14698;SDS011;7439;50.804;4.602;2022-12-16T01:48:25;73.07;;;48.73;;
14698;SDS011;7439;50.804;4.602;2022-12-16T01:51:03;68.10;;;47.87;;
14698;SDS011;7439;50.804;4.602;2022-12-16T01:53:33;75.03;;;47.87;;
14698;SDS011;7439;50.804;4.602;2022-12-16T01:56:03;69.07;;;48.53;;
14698;SDS011;7439;50.804;4.602;2022-12-16T01:58:30;70.50;;;49.77;;
14698;SDS011;7439;50.804;4.602;2022-12-16T02:00:59;66.03;;;46.90;;
14698;SDS011;7439;50.804;4.602;2022-12-16T02:03:29;70.37;;;45.90;;
14698;SDS011;7439;50.804;4.602;2022-12-16T02:05:58;68.27;;;48.97;;
14698;SDS011;7439;50.804;4.602;2022-12-16T02:08:25;72.23;;;50.03;;
14698;SDS011;7439;50.804;4.602;2022-12-16T02:14:01;65.80;;;47.33;;
14698;SDS011;7439;50.804;4.602;2022-12-16T02:16:35;67.47;;;47.60;;
14698;SDS011;7439;50.804;4.602;2022-12-16T02:19:08;63.07;;;45.23;;
14698;SDS011;7439;50.804;4.602;2022-12-16T02:21:45;65.30;;;47.33;;
14698;SDS011;7439;50.804;4.602;2022-12-16T02:24:29;73.67;;;46.63;;
14698;SDS011;7439;50.804;4.602;2022-12-16T02:27:19;68.87;;;46.67;;
14698;SDS011;7439;50.804;4.602;2022-12-16T02:30:00;61.80;;;43.80;;
14698;SDS011;7439;50.804;4.602;2022-12-16T02:32:33;67.50;;;45.57;;
14698;SDS011;7439;50.804;4.602;2022-12-16T02:35:05;62.63;;;44.63;;
14698;SDS011;7439;50.804;4.602;2022-12-16T02:37:36;58.70;;;41.53;;
14698;SDS011;7439;50.804;4.602;2022-12-16T02:40:06;62.50;;;41.70;;
14698;SDS011;7439;50.804;4.602;2022-12-16T02:42:36;60.23;;;43.30;;
14698;SDS011;7439;50.804;4.602;2022-12-16T02:45:05;60.80;;;42.57;;
14698;SDS011;7439;50.804;4.602;2022-12-16T02:47:36;61.40;;;43.30;;
14698;SDS011;7439;50.804;4.602;2022-12-16T02:50:04;62.73;;;44.13;;
14698;SDS011;7439;50.804;4.602;2022-12-16T02:52:32;65.30;;;46.63;;
14698;SDS011;7439;50.804;4.602;2022-12-16T02:55:01;60.63;;;44.23;;
14698;SDS011;7439;50.804;4.602;2022-12-16T02:57:37;62.03;;;45.83;;
14698;SDS011;7439;50.804;4.602;2022-12-16T03:00:07;56.70;;;41.90;;
14698;SDS011;7439;50.804;4.602;2022-12-16T03:02:41;58.10;;;42.60;;
14698;SDS011;7439;50.804;4.602;2022-12-16T03:05:13;61.23;;;46.43;;
14698;SDS011;7439;50.804;4.602;2022-12-16T03:07:42;57.30;;;44.73;;
14698;SDS011;7439;50.804;4.602;2022-12-16T03:10:14;61.17;;;43.10;;
14698;SDS011;7439;50.804;4.602;2022-12-16T03:12:42;60.77;;;45.67;;
14698;SDS011;7439;50.804;4.602;2022-12-16T03:15:10;59.60;;;44.73;;
14698;SDS011;7439;50.804;4.602;2022-12-16T03:17:40;67.20;;;46.63;;
14698;SDS011;7439;50.804;4.602;2022-12-16T03:20:10;64.23;;;44.77;;
14698;SDS011;7439;50.804;4.602;2022-12-16T03:22:39;65.37;;;44.17;;
14698;SDS011;7439;50.804;4.602;2022-12-16T03:25:08;62.67;;;43.47;;
14698;SDS011;7439;50.804;4.602;2022-12-16T03:27:38;62.73;;;43.67;;
14698;SDS011;7439;50.804;4.602;2022-12-16T03:30:08;60.20;;;44.50;;
14698;SDS011;7439;50.804;4.602;2022-12-16T03:32:38;62.27;;;42.43;;
14698;SDS011;7439;50.804;4.602;2022-12-16T03:35:10;53.53;;;42.50;;
14698;SDS011;7439;50.804;4.602;2022-12-16T03:37:40;57.67;;;43.60;;
14698;SDS011;7439;50.804;4.602;2022-12-16T03:40:09;55.27;;;41.77;;
14698;SDS011;7439;50.804;4.602;2022-12-16T03:42:38;61.87;;;46.20;;
14698;SDS011;7439;50.804;4.602;2022-12-16T03:45:06;59.03;;;41.57;;
14698;SDS011;7439;50.804;4.602;2022-12-16T03:47:37;59.77;;;42.43;;
14698;SDS011;7439;50.804;4.602;2022-12-16T03:50:04;58.80;;;42.90;;
14698;SDS011;7439;50.804;4.602;2022-12-16T03:52:34;56.83;;;44.07;;
14698;SDS011;7439;50.804;4.602;2022-12-16T03:55:02;62.70;;;43.77;;
14698;SDS011;7439;50.804;4.602;2022-12-16T03:57:29;58.97;;;43.00;;
14698;SDS011;7439;50.804;4.602;2022-12-16T03:59:57;59.63;;;44.00;;
14698;SDS011;7439;50.804;4.602;2022-12-16T04:02:24;60.10;;;43.57;;
14698;SDS011;7439;50.804;4.602;2022-12-16T04:04:51;60.23;;;44.30;;
14698;SDS011;7439;50.804;4.602;2022-12-16T04:07:19;59.07;;;43.53;;
14698;SDS011;7439;50.804;4.602;2022-12-16T04:09:50;59.60;;;43.13;;
14698;SDS011;7439;50.804;4.602;2022-12-16T04:12:17;60.33;;;42.13;;
14698;SDS011;7439;50.804;4.602;2022-12-16T04:15:02;62.60;;;43.40;;
14698;SDS011;7439;50.804;4.602;2022-12-16T04:17:47;65.53;;;44.93;;
14698;SDS011;7439;50.804;4.602;2022-12-16T04:20:32;59.33;;;42.57;;
14698;SDS011;7439;50.804;4.602;2022-12-16T04:23:19;63.57;;;41.80;;
14698;SDS011;7439;50.804;4.602;2022-12-16T04:26:05;56.33;;;41.03;;
14698;SDS011;7439;50.804;4.602;2022-12-16T04:28:33;54.50;;;41.93;;
14698;SDS011;7439;50.804;4.602;2022-12-16T04:31:00;56.00;;;41.50;;
14698;SDS011;7439;50.804;4.602;2022-12-16T04:33:28;54.83;;;38.40;;
14698;SDS011;7439;50.804;4.602;2022-12-16T04:36:13;61.40;;;35.80;;
14698;SDS011;7439;50.804;4.602;2022-12-16T04:38:58;68.97;;;39.33;;
14698;SDS011;7439;50.804;4.602;2022-12-16T04:41:45;60.73;;;39.10;;
14698;SDS011;7439;50.804;4.602;2022-12-16T04:44:29;67.10;;;43.40;;
14698;SDS011;7439;50.804;4.602;2022-12-16T04:47:14;65.80;;;40.00;;
14698;SDS011;7439;50.804;4.602;2022-12-16T04:49:59;74.20;;;41.53;;
14698;SDS011;7439;50.804;4.602;2022-12-16T04:52:44;73.17;;;42.57;;
14698;SDS011;7439;50.804;4.602;2022-12-16T04:55:29;75.00;;;41.17;;
14698;SDS011;7439;50.804;4.602;2022-12-16T04:58:15;71.10;;;42.87;;
14698;SDS011;7439;50.804;4.602;2022-12-16T05:01:00;65.93;;;42.53;;
14698;SDS011;7439;50.804;4.602;2022-12-16T05:03:53;70.73;;;41.17;;
14698;SDS011;7439;50.804;4.602;2022-12-16T05:06:38;82.13;;;42.40;;
14698;SDS011;7439;50.804;4.602;2022-12-16T05:09:23;68.13;;;41.10;;
14698;SDS011;7439;50.804;4.602;2022-12-16T05:12:08;68.23;;;41.87;;
14698;SDS011;7439;50.804;4.602;2022-12-16T05:14:55;69.07;;;39.73;;
14698;SDS011;7439;50.804;4.602;2022-12-16T05:17:40;66.10;;;43.30;;
14698;SDS011;7439;50.804;4.602;2022-12-16T05:20:24;72.27;;;43.33;;
14698;SDS011;7439;50.804;4.602;2022-12-16T05:23:10;71.23;;;43.23;;
14698;SDS011;7439;50.804;4.602;2022-12-16T05:25:55;73.93;;;43.20;;
14698;SDS011;7439;50.804;4.602;2022-12-16T05:28:54;73.80;;;41.93;;
14698;SDS011;7439;50.804;4.602;2022-12-16T05:31:40;68.37;;;39.53;;
14698;SDS011;7439;50.804;4.602;2022-12-16T05:34:25;69.30;;;41.77;;
14698;SDS011;7439;50.804;4.602;2022-12-16T05:37:10;59.30;;;39.27;;
14698;SDS011;7439;50.804;4.602;2022-12-16T05:39:55;72.67;;;42.80;;
14698;SDS011;7439;50.804;4.602;2022-12-16T05:42:42;72.33;;;42.43;;
14698;SDS011;7439;50.804;4.602;2022-12-16T05:45:28;73.17;;;39.03;;
14698;SDS011;7439;50.804;4.602;2022-12-16T05:48:14;64.27;;;40.03;;
14698;SDS011;7439;50.804;4.602;2022-12-16T05:50:59;71.10;;;39.63;;
14698;SDS011;7439;50.804;4.602;2022-12-16T05:53:55;73.57;;;41.93;;
14698;SDS011;7439;50.804;4.602;2022-12-16T05:56:40;74.60;;;42.70;;
14698;SDS011;7439;50.804;4.602;2022-12-16T05:59:25;68.80;;;39.17;;
14698;SDS011;7439;50.804;4.602;2022-12-16T06:02:10;63.77;;;34.53;;
14698;SDS011;7439;50.804;4.602;2022-12-16T06:05:08;70.37;;;36.97;;
14698;SDS011;7439;50.804;4.602;2022-12-16T06:07:52;68.97;;;36.57;;
14698;SDS011;7439;50.804;4.602;2022-12-16T06:10:37;75.87;;;41.00;;
14698;SDS011;7439;50.804;4.602;2022-12-16T06:13:22;69.33;;;36.77;;
14698;SDS011;7439;50.804;4.602;2022-12-16T06:16:07;75.60;;;40.43;;
14698;SDS011;7439;50.804;4.602;2022-12-16T06:18:52;65.37;;;37.40;;
14698;SDS011;7439;50.804;4.602;2022-12-16T06:21:39;62.60;;;36.23;;
14698;SDS011;7439;50.804;4.602;2022-12-16T06:24:23;67.47;;;36.70;;
14698;SDS011;7439;50.804;4.602;2022-12-16T06:27:08;67.10;;;36.07;;
14698;SDS011;7439;50.804;4.602;2022-12-16T06:29:53;62.03;;;34.17;;
14698;SDS011;7439;50.804;4.602;2022-12-16T06:32:44;59.43;;;36.23;;
14698;SDS011;7439;50.804;4.602;2022-12-16T06:35:29;61.43;;;32.93;;
14698;SDS011;7439;50.804;4.602;2022-12-16T06:38:15;57.63;;;35.43;;
14698;SDS011;7439;50.804;4.602;2022-12-16T06:41:00;63.97;;;36.40;;
14698;SDS011;7439;50.804;4.602;2022-12-16T06:43:45;59.50;;;35.50;;
14698;SDS011;7439;50.804;4.602;2022-12-16T06:46:30;60.33;;;35.80;;
14698;SDS011;7439;50.804;4.602;2022-12-16T06:49:14;67.27;;;37.23;;
14698;SDS011;7439;50.804;4.602;2022-12-16T06:51:59;64.43;;;37.57;;
14698;SDS011;7439;50.804;4.602;2022-12-16T06:54:46;59.80;;;37.17;;
14698;SDS011;7439;50.804;4.602;2022-12-16T06:57:31;64.07;;;36.70;;
14698;SDS011;7439;50.804;4.602;2022-12-16T07:00:16;61.10;;;36.73;;
14698;SDS011;7439;50.804;4.602;2022-12-16T07:03:01;51.77;;;34.47;;
14698;SDS011;7439;50.804;4.602;2022-12-16T07:05:46;50.33;;;33.37;;
14698;SDS011;7439;50.804;4.602;2022-12-16T07:08:33;53.23;;;35.07;;
14698;SDS011;7439;50.804;4.602;2022-12-16T07:11:20;59.57;;;35.90;;
14698;SDS011;7439;50.804;4.602;2022-12-16T07:14:04;58.53;;;35.27;;
14698;SDS011;7439;50.804;4.602;2022-12-16T07:16:50;59.30;;;37.70;;
14698;SDS011;7439;50.804;4.602;2022-12-16T07:19:35;62.43;;;35.13;;
14698;SDS011;7439;50.804;4.602;2022-12-16T07:22:20;59.97;;;36.83;;
14698;SDS011;7439;50.804;4.602;2022-12-16T07:25:05;65.63;;;38.93;;
14698;SDS011;7439;50.804;4.602;2022-12-16T07:27:52;64.03;;;38.10;;
14698;SDS011;7439;50.804;4.602;2022-12-16T07:30:36;63.87;;;39.17;;
14698;SDS011;7439;50.804;4.602;2022-12-16T07:33:21;61.70;;;37.63;;
14698;SDS011;7439;50.804;4.602;2022-12-16T07:36:06;67.53;;;40.83;;
14698;SDS011;7439;50.804;4.602;2022-12-16T07:38:51;58.23;;;37.13;;
14698;SDS011;7439;50.804;4.602;2022-12-16T07:41:36;57.63;;;34.23;;
14698;SDS011;7439;50.804;4.602;2022-12-16T07:44:22;58.80;;;35.80;;
14698;SDS011;7439;50.804;4.602;2022-12-16T07:47:07;57.67;;;36.47;;
14698;SDS011;7439;50.804;4.602;2022-12-16T07:49:52;60.17;;;35.80;;
14698;SDS011;7439;50.804;4.602;2022-12-16T07:52:37;55.53;;;35.23;;
14698;SDS011;7439;50.804;4.602;2022-12-16T07:55:22;53.10;;;33.50;;
14698;SDS011;7439;50.804;4.602;2022-12-16T07:58:07;49.93;;;33.40;;
14698;SDS011;7439;50.804;4.602;2022-12-16T08:00:54;59.93;;;35.60;;
14698;SDS011;7439;50.804;4.602;2022-12-16T08:03:39;53.17;;;34.63;;
14698;SDS011;7439;50.804;4.602;2022-12-16T08:06:24;53.70;;;34.43;;
14698;SDS011;7439;50.804;4.602;2022-12-16T08:09:09;51.97;;;34.07;;
14698;SDS011;7439;50.804;4.602;2022-12-16T08:11:54;52.80;;;35.63;;
14698;SDS011;7439;50.804;4.602;2022-12-16T08:14:39;56.70;;;38.03;;
14698;SDS011;7439;50.804;4.602;2022-12-16T08:17:25;47.23;;;34.57;;
14698;SDS011;7439;50.804;4.602;2022-12-16T08:20:11;57.10;;;37.43;;
14698;SDS011;7439;50.804;4.602;2022-12-16T08:25:45;48.70;;;33.27;;
14698;SDS011;7439;50.804;4.602;2022-12-16T08:28:30;44.07;;;31.97;;
14698;SDS011;7439;50.804;4.602;2022-12-16T08:31:15;46.77;;;30.20;;
14698;SDS011;7439;50.804;4.602;2022-12-16T08:34:02;47.10;;;34.20;;
14698;SDS011;7439;50.804;4.602;2022-12-16T08:36:47;47.93;;;31.30;;
14698;SDS011;7439;50.804;4.602;2022-12-16T08:39:32;48.50;;;30.07;;
14698;SDS011;7439;50.804;4.602;2022-12-16T08:42:16;50.07;;;31.73;;
14698;SDS011;7439;50.804;4.602;2022-12-16T08:45:02;40.97;;;31.07;;
14698;SDS011;7439;50.804;4.602;2022-12-16T08:47:47;45.07;;;31.73;;
14698;SDS011;7439;50.804;4.602;2022-12-16T08:50:33;49.87;;;31.73;;
14698;SDS011;7439;50.804;4.602;2022-12-16T08:53:18;48.93;;;32.83;;
14698;SDS011;7439;50.804;4.602;2022-12-16T08:56:03;48.57;;;31.23;;
14698;SDS011;7439;50.804;4.602;2022-12-16T08:58:44;48.90;;;32.70;;
14698;SDS011;7439;50.804;4.602;2022-12-16T09:01:29;41.03;;;29.03;;
14698;SDS011;7439;50.804;4.602;2022-12-16T09:04:14;42.70;;;30.00;;
14698;SDS011;7439;50.804;4.602;2022-12-16T09:07:00;45.40;;;29.73;;
14698;SDS011;7439;50.804;4.602;2022-12-16T09:09:47;40.37;;;29.47;;
14698;SDS011;7439;50.804;4.602;2022-12-16T09:12:32;50.67;;;32.90;;
14698;SDS011;7439;50.804;4.602;2022-12-16T09:15:17;44.90;;;30.87;;
14698;SDS011;7439;50.804;4.602;2022-12-16T09:18:02;49.63;;;32.33;;
14698;SDS011;7439;50.804;4.602;2022-12-16T09:20:47;47.80;;;32.67;;
14698;SDS011;7439;50.804;4.602;2022-12-16T09:23:33;43.90;;;31.83;;
14698;SDS011;7439;50.804;4.602;2022-12-16T09:26:18;47.57;;;32.37;;
14698;SDS011;7439;50.804;4.602;2022-12-16T09:29:03;49.70;;;33.20;;
14698;SDS011;7439;50.804;4.602;2022-12-16T09:31:48;44.13;;;30.33;;
14698;SDS011;7439;50.804;4.602;2022-12-16T09:34:33;40.83;;;30.87;;
14698;SDS011;7439;50.804;4.602;2022-12-16T09:37:18;46.07;;;30.00;;
14698;SDS011;7439;50.804;4.602;2022-12-16T09:40:05;41.93;;;31.10;;
14698;SDS011;7439;50.804;4.602;2022-12-16T09:42:52;41.07;;;29.73;;
14698;SDS011;7439;50.804;4.602;2022-12-16T09:45:39;36.23;;;28.17;;
14698;SDS011;7439;50.804;4.602;2022-12-16T09:48:44;37.97;;;27.30;;
14698;SDS011;7439;50.804;4.602;2022-12-16T09:51:32;40.00;;;27.67;;
14698;SDS011;7439;50.804;4.602;2022-12-16T09:54:18;42.23;;;29.07;;
14698;SDS011;7439;50.804;4.602;2022-12-16T09:57:06;38.63;;;27.67;;
14698;SDS011;7439;50.804;4.602;2022-12-16T10:00:07;42.57;;;29.73;;
14698;SDS011;7439;50.804;4.602;2022-12-16T10:02:52;42.17;;;28.20;;
14698;SDS011;7439;50.804;4.602;2022-12-16T10:05:42;40.77;;;28.07;;
14698;SDS011;7439;50.804;4.602;2022-12-16T10:08:30;35.40;;;26.67;;
14698;SDS011;7439;50.804;4.602;2022-12-16T10:11:32;39.67;;;28.93;;
14698;SDS011;7439;50.804;4.602;2022-12-16T10:14:22;38.57;;;28.17;;
14698;SDS011;7439;50.804;4.602;2022-12-16T10:17:10;36.17;;;27.80;;
14698;SDS011;7439;50.804;4.602;2022-12-16T10:19:57;39.70;;;28.47;;
14698;SDS011;7439;50.804;4.602;2022-12-16T10:22:46;38.67;;;28.23;;
14698;SDS011;7439;50.804;4.602;2022-12-16T10:25:33;35.03;;;25.60;;
14698;SDS011;7439;50.804;4.602;2022-12-16T10:28:22;34.57;;;27.47;;
14698;SDS011;7439;50.804;4.602;2022-12-16T10:31:12;41.97;;;31.10;;
14698;SDS011;7439;50.804;4.602;2022-12-16T10:33:57;36.57;;;28.90;;
14698;SDS011;7439;50.804;4.602;2022-12-16T10:36:42;38.87;;;29.93;;
14698;SDS011;7439;50.804;4.602;2022-12-16T10:39:28;45.57;;;32.07;;
14698;SDS011;7439;50.804;4.602;2022-12-16T10:42:17;45.80;;;34.03;;
14698;SDS011;7439;50.804;4.602;2022-12-16T10:45:04;37.97;;;29.43;;
14698;SDS011;7439;50.804;4.602;2022-12-16T10:47:53;40.13;;;27.87;;
14698;SDS011;7439;50.804;4.602;2022-12-16T10:50:37;39.80;;;28.93;;
14698;SDS011;7439;50.804;4.602;2022-12-16T10:53:24;40.60;;;27.03;;
14698;SDS011;7439;50.804;4.602;2022-12-16T10:56:13;36.23;;;26.67;;
14698;SDS011;7439;50.804;4.602;2022-12-16T10:59:02;40.07;;;29.90;;
14698;SDS011;7439;50.804;4.602;2022-12-16T11:01:54;35.20;;;27.10;;
14698;SDS011;7439;50.804;4.602;2022-12-16T11:04:37;29.30;;;23.97;;
14698;SDS011;7439;50.804;4.602;2022-12-16T11:07:24;27.43;;;22.83;;
14698;SDS011;7439;50.804;4.602;2022-12-16T11:10:29;24.30;;;21.20;;
14698;SDS011;7439;50.804;4.602;2022-12-16T11:13:18;21.80;;;19.40;;
14698;SDS011;7439;50.804;4.602;2022-12-16T11:16:09;21.57;;;18.67;;
14698;SDS011;7439;50.804;4.602;2022-12-16T11:18:54;21.73;;;18.03;;
14698;SDS011;7439;50.804;4.602;2022-12-16T11:21:40;21.97;;;18.47;;
14698;SDS011;7439;50.804;4.602;2022-12-16T11:24:25;24.40;;;19.53;;
14698;SDS011;7439;50.804;4.602;2022-12-16T11:27:15;23.67;;;19.33;;
14698;SDS011;7439;50.804;4.602;2022-12-16T11:30:14;25.33;;;20.70;;
14698;SDS011;7439;50.804;4.602;2022-12-16T11:33:01;25.40;;;19.20;;
14698;SDS011;7439;50.804;4.602;2022-12-16T11:35:49;23.70;;;20.43;;
14698;SDS011;7439;50.804;4.602;2022-12-16T11:38:39;23.17;;;19.47;;
14698;SDS011;7439;50.804;4.602;2022-12-16T11:41:25;25.47;;;20.87;;
14698;SDS011;7439;50.804;4.602;2022-12-16T11:44:15;25.47;;;20.27;;
14698;SDS011;7439;50.804;4.602;2022-12-16T11:47:03;22.57;;;19.17;;
14698;SDS011;7439;50.804;4.602;2022-12-16T11:49:49;23.77;;;20.13;;
14698;SDS011;7439;50.804;4.602;2022-12-16T11:52:34;23.73;;;19.20;;
14698;SDS011;7439;50.804;4.602;2022-12-16T11:55:24;22.47;;;19.37;;
14698;SDS011;7439;50.804;4.602;2022-12-16T11:58:14;24.13;;;20.47;;
14698;SDS011;7439;50.804;4.602;2022-12-16T12:01:01;26.23;;;20.37;;
14698;SDS011;7439;50.804;4.602;2022-12-16T12:03:46;22.53;;;17.60;;
14698;SDS011;7439;50.804;4.602;2022-12-16T12:06:35;20.43;;;17.63;;
14698;SDS011;7439;50.804;4.602;2022-12-16T12:09:25;19.53;;;17.57;;
14698;SDS011;7439;50.804;4.602;2022-12-16T12:12:15;19.70;;;17.20;;
14698;SDS011;7439;50.804;4.602;2022-12-16T12:15:06;18.47;;;16.50;;
14698;SDS011;7439;50.804;4.602;2022-12-16T12:18:04;20.10;;;18.00;;
14698;SDS011;7439;50.804;4.602;2022-12-16T12:20:52;18.20;;;16.23;;
14698;SDS011;7439;50.804;4.602;2022-12-16T12:23:44;18.30;;;16.33;;
14698;SDS011;7439;50.804;4.602;2022-12-16T12:26:34;18.20;;;16.40;;
14698;SDS011;7439;50.804;4.602;2022-12-16T12:29:23;18.67;;;16.77;;
14698;SDS011;7439;50.804;4.602;2022-12-16T12:32:14;19.10;;;17.20;;
14698;SDS011;7439;50.804;4.602;2022-12-16T12:35:04;18.47;;;16.57;;
14698;SDS011;7439;50.804;4.602;2022-12-16T12:37:53;19.70;;;17.50;;
14698;SDS011;7439;50.804;4.602;2022-12-16T12:40:57;21.40;;;18.83;;
14698;SDS011;7439;50.804;4.602;2022-12-16T12:43:45;19.73;;;17.73;;
14698;SDS011;7439;50.804;4.602;2022-12-16T12:46:35;20.20;;;17.73;;
14698;SDS011;7439;50.804;4.602;2022-12-16T12:49:25;19.93;;;17.87;;
14698;SDS011;7439;50.804;4.602;2022-12-16T12:52:14;20.57;;;18.43;;
14698;SDS011;7439;50.804;4.602;2022-12-16T12:55:02;20.27;;;16.87;;
14698;SDS011;7439;50.804;4.602;2022-12-16T12:57:48;19.53;;;17.63;;
14698;SDS011;7439;50.804;4.602;2022-12-16T13:00:34;20.13;;;18.10;;
14698;SDS011;7439;50.804;4.602;2022-12-16T13:03:26;19.47;;;17.33;;
14698;SDS011;7439;50.804;4.602;2022-12-16T13:06:14;19.67;;;17.67;;
14698;SDS011;7439;50.804;4.602;2022-12-16T13:09:00;18.87;;;16.87;;
14698;SDS011;7439;50.804;4.602;2022-12-16T13:14:55;19.13;;;17.20;;
14698;SDS011;7439;50.804;4.602;2022-12-16T13:20:56;16.97;;;15.27;;
14698;SDS011;7439;50.804;4.602;2022-12-16T13:23:41;18.97;;;15.73;;
14698;SDS011;7439;50.804;4.602;2022-12-16T13:26:27;19.40;;;17.30;;
14698;SDS011;7439;50.804;4.602;2022-12-16T13:29:15;18.07;;;16.20;;
14698;SDS011;7439;50.804;4.602;2022-12-16T13:32:01;17.10;;;15.30;;
14698;SDS011;7439;50.804;4.602;2022-12-16T13:34:57;16.60;;;14.90;;
14698;SDS011;7439;50.804;4.602;2022-12-16T13:37:44;16.50;;;14.83;;
14698;SDS011;7439;50.804;4.602;2022-12-16T13:40:46;17.97;;;14.37;;
14698;SDS011;7439;50.804;4.602;2022-12-16T13:46:41;15.07;;;13.67;;
14698;SDS011;7439;50.804;4.602;2022-12-16T13:49:38;15.63;;;14.00;;
14698;SDS011;7439;50.804;4.602;2022-12-16T13:52:25;17.10;;;14.33;;
14698;SDS011;7439;50.804;4.602;2022-12-16T13:55:13;18.63;;;14.63;;
14698;SDS011;7439;50.804;4.602;2022-12-16T13:58:01;16.63;;;14.53;;
14698;SDS011;7439;50.804;4.602;2022-12-16T14:00:53;17.00;;;14.30;;
14698;SDS011;7439;50.804;4.602;2022-12-16T14:03:40;15.77;;;14.10;;
14698;SDS011;7439;50.804;4.602;2022-12-16T14:06:26;17.53;;;13.97;;
14698;SDS011;7439;50.804;4.602;2022-12-16T14:09:18;16.73;;;13.70;;
14698;SDS011;7439;50.804;4.602;2022-12-16T14:12:08;15.97;;;14.03;;
14698;SDS011;7439;50.804;4.602;2022-12-16T14:14:58;16.57;;;12.97;;
14698;SDS011;7439;50.804;4.602;2022-12-16T14:17:47;14.90;;;12.93;;
14698;SDS011;7439;50.804;4.602;2022-12-16T14:20:33;15.13;;;12.33;;
14698;SDS011;7439;50.804;4.602;2022-12-16T14:23:24;15.60;;;12.60;;
14698;SDS011;7439;50.804;4.602;2022-12-16T14:26:12;15.83;;;14.10;;
14698;SDS011;7439;50.804;4.602;2022-12-16T14:28:58;15.57;;;13.97;;
14698;SDS011;7439;50.804;4.602;2022-12-16T14:31:44;16.57;;;13.37;;
14698;SDS011;7439;50.804;4.602;2022-12-16T14:34:32;16.37;;;13.03;;
14698;SDS011;7439;50.804;4.602;2022-12-16T14:37:18;16.63;;;13.43;;
14698;SDS011;7439;50.804;4.602;2022-12-16T14:40:04;17.10;;;12.50;;
14698;SDS011;7439;50.804;4.602;2022-12-16T14:42:50;20.93;;;12.73;;
14698;SDS011;7439;50.804;4.602;2022-12-16T14:45:37;15.33;;;12.90;;
14698;SDS011;7439;50.804;4.602;2022-12-16T14:48:23;14.07;;;10.93;;
14698;SDS011;7439;50.804;4.602;2022-12-16T14:51:21;17.40;;;12.37;;
14698;SDS011;7439;50.804;4.602;2022-12-16T14:54:20;17.43;;;12.63;;
14698;SDS011;7439;50.804;4.602;2022-12-16T14:57:09;17.77;;;12.37;;
14698;SDS011;7439;50.804;4.602;2022-12-16T15:00:11;15.13;;;11.43;;
14698;SDS011;7439;50.804;4.602;2022-12-16T15:02:58;18.67;;;12.87;;
14698;SDS011;7439;50.804;4.602;2022-12-16T15:05:45;17.80;;;11.93;;
14698;SDS011;7439;50.804;4.602;2022-12-16T15:08:31;16.53;;;12.20;;
14698;SDS011;7439;50.804;4.602;2022-12-16T15:11:19;22.93;;;12.43;;
14698;SDS011;7439;50.804;4.602;2022-12-16T15:14:04;20.90;;;12.37;;
14698;SDS011;7439;50.804;4.602;2022-12-16T15:16:50;18.57;;;11.87;;
14698;SDS011;7439;50.804;4.602;2022-12-16T15:19:38;16.40;;;12.10;;
14698;SDS011;7439;50.804;4.602;2022-12-16T15:22:25;15.67;;;11.80;;
14698;SDS011;7439;50.804;4.602;2022-12-16T15:25:16;15.03;;;11.40;;
14698;SDS011;7439;50.804;4.602;2022-12-16T15:28:02;16.63;;;12.37;;
14698;SDS011;7439;50.804;4.602;2022-12-16T15:30:47;20.57;;;12.67;;
14698;SDS011;7439;50.804;4.602;2022-12-16T15:33:32;20.13;;;13.30;;
14698;SDS011;7439;50.804;4.602;2022-12-16T15:36:26;18.67;;;13.50;;
14698;SDS011;7439;50.804;4.602;2022-12-16T15:39:19;16.40;;;12.97;;
14698;SDS011;7439;50.804;4.602;2022-12-16T15:42:04;25.90;;;15.87;;
14698;SDS011;7439;50.804;4.602;2022-12-16T15:44:50;21.30;;;14.43;;
14698;SDS011;7439;50.804;4.602;2022-12-16T15:47:35;19.63;;;13.40;;
14698;SDS011;7439;50.804;4.602;2022-12-16T15:50:21;24.37;;;13.30;;
14698;SDS011;7439;50.804;4.602;2022-12-16T15:53:15;26.77;;;14.60;;
14698;SDS011;7439;50.804;4.602;2022-12-16T15:56:14;25.83;;;14.80;;
14698;SDS011;7439;50.804;4.602;2022-12-16T15:59:12;21.53;;;14.00;;
14698;SDS011;7439;50.804;4.602;2022-12-16T16:01:57;25.00;;;15.10;;
14698;SDS011;7439;50.804;4.602;2022-12-16T16:04:42;29.20;;;16.43;;
14698;SDS011;7439;50.804;4.602;2022-12-16T16:07:27;37.37;;;19.57;;
14698;SDS011;7439;50.804;4.602;2022-12-16T16:10:16;37.67;;;20.60;;
14698;SDS011;7439;50.804;4.602;2022-12-16T16:13:01;41.80;;;22.70;;
14698;SDS011;7439;50.804;4.602;2022-12-16T16:15:46;42.43;;;23.60;;
14698;SDS011;7439;50.804;4.602;2022-12-16T16:18:31;39.87;;;25.33;;